الصفحة الرئيسية
METAR-TAF:

METAR-TAF

مطار :

مطار نواكشوط الدولي

نواكشوط, موريتانيا

دائرة عرض: 18-18-36N, خط طول: 015-58-11W, ارتفاع: 3 متر

مراقبة الطقس الحالي

تاريخ ووقت الإصدار 32 دقيقة قبل الساعة 06:00UTC
ريح 9 عقدة من الشمال
درجة الحرارة 29°درجة مئوية
الرطوبة 43%
ضغط 1006 hPa
الرؤية: 2000 متر
هبوب الغبار

METAR: GQNO 160600Z 35009KT 2000 BLDU NSC 29/15 Q1006 NOSIG

زمن: 06:32 (06:32 UTC)

توقعات

تاريخ ووقت الإصدار 1ساعة و 2 دقيقة قبل الساعة 05:30UTC
التوقعات صالحة من16 الساعة 06 UTC إلى 17 الساعة 12 UTC
ريح 12 عقدة من الشمال
الرؤية: 2000 متر
هبوب الغبار
أصبح
من 16 الساعة 08 UTC إلى 16 الساعة 12 UTC
ريح 10 عقدة من الغرب/الشمال الغربي
الرؤية: 6000 متر

TAF: GQNO 160530Z 1606/1712 35012KT 2000 BLDU NSC BECMG 1608/1612 29010KT 6000 NSW

أرصاد الطقس والتوقعات من أكثر من 4000 مطار (تقارير الطقس للمطار METAR والتنبؤ بالطقس بالمطارTAF).

المحطات المتاحة هي النقط الصفراء والحمراء على الخريطة.

حرك المؤشر فوق النقطة لمعرفة اسم المحطة.

ثم انقر لمعرفة أرصاد وتوقعات الطقس.

لتغيير الخارطة: اضغط على الأزرار الخضراء مع رمز الصليب الأسود للتكبير. على الزر الأخضر مع شرطة للتصغير، أو على الأسهم الخضراء للخرائط المجاورة.


METAR-TAF: